createdAt,value
2022-08-16T00:01:22.050Z,100455.94
2022-08-16T00:03:52.280Z,100467.88
2022-08-16T00:06:22.530Z,100455.84
2022-08-16T00:08:50.464Z,100464.34
2022-08-16T00:11:22.589Z,100457.69
2022-08-16T00:13:53.877Z,100455.03
2022-08-16T00:17:05.886Z,100462.31
2022-08-16T00:19:13.405Z,100463.34
2022-08-16T00:21:41.595Z,100465.63
2022-08-16T00:24:11.492Z,100465.13
2022-08-16T00:26:43.930Z,100469.41
2022-08-16T00:29:13.032Z,100476.31
2022-08-16T00:32:00.041Z,100478.66
2022-08-16T00:34:44.029Z,100477.38
2022-08-16T00:37:18.701Z,100474.75
2022-08-16T00:39:56.818Z,100477.88
2022-08-16T00:42:30.132Z,100481.88
2022-08-16T00:45:01.476Z,100478.72
2022-08-16T00:47:35.330Z,100478.66
2022-08-16T00:50:05.040Z,100483.97
2022-08-16T00:52:38.842Z,100482.69
2022-08-16T00:55:17.764Z,100483.19
2022-08-16T00:57:59.914Z,100490.59
2022-08-16T01:00:29.224Z,100487.41
2022-08-16T01:02:57.276Z,100489.28
2022-08-16T01:05:25.556Z,100478.09
2022-08-16T01:07:54.384Z,100485.25
2022-08-16T01:10:31.863Z,100486.25
2022-08-16T01:13:05.551Z,100483.03
2022-08-16T01:15:33.892Z,100479.34
2022-08-16T01:18:02.283Z,100477.72
2022-08-16T01:20:32.911Z,100479.84
2022-08-16T01:23:08.716Z,100474.47
2022-08-16T01:25:39.908Z,100470.75
2022-08-16T01:28:08.930Z,100476.84
2022-08-16T01:30:40.226Z,100474.44
2022-08-16T01:33:19.299Z,100472.28
2022-08-16T01:35:52.901Z,100472.00
2022-08-16T01:38:22.099Z,100467.75
2022-08-16T01:40:55.928Z,100469.31
2022-08-16T01:43:24.997Z,100465.31
2022-08-16T01:45:57.556Z,100470.56
2022-08-16T01:48:28.011Z,100466.81
2022-08-16T01:51:09.578Z,100478.63
2022-08-16T01:53:43.559Z,100475.16
2022-08-16T01:56:24.790Z,100477.81
2022-08-16T01:58:53.453Z,100464.31
2022-08-16T02:01:21.217Z,100469.84
2022-08-16T02:03:50.657Z,100476.94
2022-08-16T02:06:34.242Z,100484.84
2022-08-16T02:09:05.352Z,100484.56
2022-08-16T02:11:47.362Z,100482.19
2022-08-16T02:14:18.429Z,100482.19
2022-08-16T02:16:49.182Z,100485.66
2022-08-16T02:19:18.221Z,100476.59
2022-08-16T02:22:09.269Z,100477.88
2022-08-16T02:24:41.119Z,100476.25
2022-08-16T02:27:11.425Z,100475.69
2022-08-16T02:29:41.346Z,100468.78
2022-08-16T02:32:49.111Z,100469.84
2022-08-16T02:34:57.767Z,100476.66
2022-08-16T02:37:51.622Z,100475.31
2022-08-16T02:40:16.341Z,100476.63
2022-08-16T02:42:45.482Z,100482.41
2022-08-16T02:45:15.860Z,100481.63
2022-08-16T02:48:01.430Z,100482.09
2022-08-16T02:50:54.053Z,100477.03
2022-08-16T02:53:23.566Z,100478.88
2022-08-16T02:55:51.339Z,100478.03
2022-08-16T02:58:25.033Z,100470.81
2022-08-16T03:00:56.086Z,100470.03
2022-08-16T03:04:29.985Z,100467.06
2022-08-16T03:06:41.816Z,100465.97
2022-08-16T03:09:13.752Z,100467.03
2022-08-16T03:11:42.693Z,100466.47
2022-08-16T03:14:12.042Z,100464.53
2022-08-16T03:16:42.341Z,100467.44
2022-08-16T03:19:48.044Z,100473.00
2022-08-16T03:22:19.259Z,100470.56
2022-08-16T03:24:57.356Z,100467.09
2022-08-16T03:27:25.196Z,100462.84
2022-08-16T03:30:00.011Z,100466.22
2022-08-16T03:32:27.478Z,100469.22
2022-08-16T03:34:55.850Z,100465.53
2022-08-16T03:37:24.281Z,100472.31
2022-08-16T03:39:56.208Z,100471.97
2022-08-16T03:42:24.509Z,100473.09
2022-08-16T03:45:03.316Z,100473.25
2022-08-16T03:47:34.094Z,100469.00
2022-08-16T03:50:02.985Z,100462.19
2022-08-16T03:52:31.639Z,100465.97
2022-08-16T03:55:01.263Z,100468.75
2022-08-16T03:57:31.807Z,100469.81
2022-08-16T04:00:20.218Z,100476.78
2022-08-16T04:03:07.164Z,100472.31
2022-08-16T04:05:36.566Z,100471.25
2022-08-16T04:08:23.148Z,100477.66
2022-08-16T04:10:52.500Z,100472.63
2022-08-16T04:13:59.299Z,100474.88
2022-08-16T04:16:08.160Z,100482.00
2022-08-16T04:18:38.736Z,100486.56
2022-08-16T04:21:06.944Z,100489.59
2022-08-16T04:23:34.878Z,100490.16
2022-08-16T04:26:04.853Z,100492.25
2022-08-16T04:28:55.676Z,100491.38
2022-08-16T04:31:20.320Z,100495.22
2022-08-16T04:33:50.990Z,100502.59
2022-08-16T04:36:20.171Z,100503.69
2022-08-16T04:38:50.738Z,100500.53
2022-08-16T04:41:20.118Z,100429.75
2022-08-16T04:44:00.785Z,100513.47
2022-08-16T04:47:00.004Z,100517.75
2022-08-16T04:49:17.836Z,100520.75
2022-08-16T04:51:46.580Z,100521.94
2022-08-16T04:54:21.554Z,100525.78
2022-08-16T04:56:49.128Z,100532.69
2022-08-16T04:59:16.912Z,100526.09
2022-08-16T05:01:58.473Z,100531.22
2022-08-16T05:04:29.899Z,100533.72
2022-08-16T05:06:58.033Z,100534.22
2022-08-16T05:09:25.554Z,100529.88
2022-08-16T05:11:57.858Z,100534.91
2022-08-16T05:14:45.911Z,100533.16
2022-08-16T05:17:13.405Z,100528.69
2022-08-16T05:19:46.607Z,100536.44
2022-08-16T05:22:24.588Z,100536.06
2022-08-16T05:24:56.174Z,100536.84
2022-08-16T05:27:23.804Z,100525.88
2022-08-16T05:29:57.470Z,100535.88
2022-08-16T05:32:32.553Z,100543.34
2022-08-16T05:35:04.598Z,100541.44
2022-08-16T05:37:39.841Z,100553.69
2022-08-16T05:40:09.293Z,100557.63
2022-08-16T05:42:41.164Z,100553.78
2022-08-16T05:45:22.052Z,100557.78
2022-08-16T05:47:59.727Z,100555.19
2022-08-16T05:50:34.305Z,100552.03
2022-08-16T05:53:02.342Z,100552.31
2022-08-16T05:55:30.153Z,100546.88
2022-08-16T05:57:58.183Z,100551.44
2022-08-16T06:00:26.133Z,100545.31
2022-08-16T06:02:54.055Z,100543.72
2022-08-16T06:05:22.389Z,100547.03
2022-08-16T06:07:59.031Z,100555.56
2022-08-16T06:10:32.343Z,100549.38
2022-08-16T06:13:01.046Z,100547.94
2022-08-16T06:15:30.639Z,100549.69
2022-08-16T06:17:59.217Z,100557.22
2022-08-16T06:20:35.547Z,100558.75
2022-08-16T06:23:11.557Z,100562.31
2022-08-16T06:25:44.461Z,100568.97
2022-08-16T06:28:34.874Z,100565.66
2022-08-16T06:31:06.626Z,100573.13
2022-08-16T06:33:41.715Z,100567.38
2022-08-16T06:36:10.313Z,100567.59
2022-08-16T06:38:55.673Z,100564.06
2022-08-16T06:41:39.730Z,100561.19
2022-08-16T06:44:07.987Z,100558.41
2022-08-16T06:46:50.500Z,100557.06
2022-08-16T06:49:20.269Z,100567.97
2022-08-16T06:51:49.205Z,100575.16
2022-08-16T06:54:18.944Z,100568.41
2022-08-16T06:56:54.011Z,100565.28
2022-08-16T06:59:30.686Z,100574.59
2022-08-16T07:02:32.785Z,100564.19
2022-08-16T07:05:01.467Z,100574.22
2022-08-16T07:07:33.841Z,100580.56
2022-08-16T07:10:08.705Z,100574.47
2022-08-16T07:12:47.076Z,100578.56
2022-08-16T07:15:18.711Z,100579.53
2022-08-16T07:17:46.835Z,100587.06
2022-08-16T07:20:35.146Z,100578.56
2022-08-16T07:23:13.230Z,100580.81
2022-08-16T07:25:42.611Z,100575.34
2022-08-16T07:28:11.913Z,100581.72
2022-08-16T07:30:48.134Z,100589.22
2022-08-16T07:33:21.411Z,100582.88
2022-08-16T07:36:05.731Z,100586.56
2022-08-16T07:38:35.050Z,100587.72
2022-08-16T07:41:09.544Z,100588.22
2022-08-16T07:43:40.573Z,100594.91
2022-08-16T07:46:39.617Z,100595.94
2022-08-16T07:49:12.951Z,100599.41
2022-08-16T07:51:40.738Z,100607.13
2022-08-16T07:54:20.560Z,100608.22
2022-08-16T07:56:53.185Z,100617.53
2022-08-16T07:59:20.727Z,100620.19
2022-08-16T08:01:48.674Z,100625.25
2022-08-16T08:04:20.726Z,100616.47
2022-08-16T08:06:50.943Z,100622.88
2022-08-16T08:09:18.885Z,100628.44
2022-08-16T08:11:59.975Z,100637.50
2022-08-16T08:14:32.771Z,100636.69
2022-08-16T08:17:01.760Z,100643.63
2022-08-16T08:19:29.822Z,100633.50
2022-08-16T08:21:59.636Z,100630.25
2022-08-16T08:24:32.627Z,100628.03
2022-08-16T08:27:00.643Z,100637.22
2022-08-16T08:29:36.849Z,100633.59
2022-08-16T08:33:01.822Z,100648.00
2022-08-16T08:34:53.921Z,100646.41
2022-08-16T08:37:22.530Z,100654.56
2022-08-16T08:39:54.587Z,100651.25
2022-08-16T08:42:26.562Z,100667.09
2022-08-16T08:44:56.962Z,100652.47
2022-08-16T08:47:24.509Z,100657.16
2022-08-16T08:49:55.599Z,100660.13
2022-08-16T08:52:34.378Z,100649.25
2022-08-16T08:55:12.988Z,100654.94
2022-08-16T08:57:41.081Z,100650.06
2022-08-16T09:00:13.743Z,100649.41
2022-08-16T09:02:42.094Z,100650.88
2022-08-16T09:05:15.526Z,100654.03
2022-08-16T09:08:00.424Z,100650.13
2022-08-16T09:10:29.870Z,100652.03
2022-08-16T09:13:06.115Z,100652.22
2022-08-16T09:15:41.611Z,100662.25
2022-08-16T09:18:26.278Z,100668.22
2022-08-16T09:20:59.953Z,100665.94
2022-08-16T09:23:28.989Z,100674.44
2022-08-16T09:25:56.651Z,100677.44
2022-08-16T09:29:13.592Z,100677.06
2022-08-16T09:31:14.212Z,100678.56
2022-08-16T09:33:42.191Z,100672.19
2022-08-16T09:36:12.230Z,100675.97
2022-08-16T09:38:59.880Z,100682.16
2022-08-16T09:41:28.137Z,100679.31
2022-08-16T09:43:59.879Z,100682.28
2022-08-16T09:46:45.064Z,100687.91
2022-08-16T09:49:16.769Z,100695.63
2022-08-16T09:51:47.849Z,100691.34
2022-08-16T09:54:20.953Z,100702.69
2022-08-16T09:56:52.182Z,100702.31
2022-08-16T09:59:22.344Z,100703.34
2022-08-16T10:01:51.804Z,100705.63
2022-08-16T10:04:30.424Z,100708.13
2022-08-16T10:07:11.978Z,100703.28
2022-08-16T10:09:54.070Z,100708.09
2022-08-16T10:12:43.146Z,100704.09
2022-08-16T10:15:15.455Z,100704.03
2022-08-16T10:17:45.616Z,100705.00
2022-08-16T10:20:30.040Z,100703.78
2022-08-16T10:23:05.478Z,100699.94
2022-08-16T10:27:00.727Z,100704.03
2022-08-16T10:28:32.065Z,100686.63
2022-08-16T10:31:00.371Z,100704.00
2022-08-16T10:33:33.986Z,100686.69
2022-08-16T10:36:03.848Z,100697.63
2022-08-16T10:38:33.107Z,100685.19
2022-08-16T10:41:04.121Z,100690.75
2022-08-16T10:43:31.891Z,100695.28
2022-08-16T10:46:01.400Z,100699.09
2022-08-16T10:48:29.535Z,100694.75
2022-08-16T10:51:02.725Z,100692.25
2022-08-16T10:53:33.923Z,100695.72
2022-08-16T10:56:01.835Z,100696.59
2022-08-16T10:58:34.344Z,100699.25
2022-08-16T11:01:25.029Z,100703.03
2022-08-16T11:03:54.389Z,100707.66
2022-08-16T11:06:28.018Z,100712.41
2022-08-16T11:14:31.954Z,100717.75
2022-08-16T11:17:02.510Z,100716.22
2022-08-16T11:20:00.728Z,100714.59
2022-08-16T11:22:42.182Z,100725.34
2022-08-16T11:26:07.791Z,100732.06
2022-08-16T11:28:03.844Z,100728.09
2022-08-16T11:30:39.180Z,100735.56
2022-08-16T11:33:14.329Z,100734.25
2022-08-16T11:42:29.870Z,100729.25
2022-08-16T11:45:00.525Z,100733.16
2022-08-16T11:50:56.907Z,100750.88
2022-08-16T11:53:25.735Z,100746.09
2022-08-16T11:55:54.569Z,100750.84
2022-08-16T11:58:26.089Z,100748.69
2022-08-16T12:00:57.412Z,100744.31
2022-08-16T12:03:34.667Z,100750.88
2022-08-16T12:06:08.091Z,100750.91
2022-08-16T12:08:39.620Z,100749.81
2022-08-16T12:11:12.511Z,100753.06
2022-08-16T12:13:42.754Z,100754.06
2022-08-16T12:16:11.212Z,100747.53
2022-08-16T12:18:44.678Z,100752.38
2022-08-16T12:21:12.429Z,100753.19
2022-08-16T12:23:39.944Z,100766.47
2022-08-16T12:26:10.326Z,100765.81
2022-08-16T12:28:56.105Z,100759.78
2022-08-16T12:31:26.239Z,100757.03
2022-08-16T12:33:55.998Z,100763.44
2022-08-16T12:36:26.125Z,100763.06
2022-08-16T12:39:15.157Z,100762.00
2022-08-16T12:45:15.070Z,100776.69
2022-08-16T12:51:58.019Z,100781.88
2022-08-16T12:54:42.795Z,100776.19
2022-08-16T13:01:17.955Z,100790.22
2022-08-16T13:07:09.665Z,100804.47
2022-08-16T13:13:54.749Z,100761.56
2022-08-16T13:16:34.618Z,100797.88
2022-08-16T13:19:02.393Z,100795.41
2022-08-16T13:21:30.338Z,100789.34
2022-08-16T13:23:58.113Z,100789.25
2022-08-16T13:26:26.760Z,100784.50
2022-08-16T13:28:54.513Z,100788.56
2022-08-16T13:31:23.886Z,100778.00
2022-08-16T13:33:54.490Z,100772.03
2022-08-16T13:36:47.940Z,100779.56
2022-08-16T13:39:14.155Z,100774.25
2022-08-16T13:41:41.764Z,100781.81
2022-08-16T13:44:11.510Z,100778.03
2022-08-16T13:46:43.207Z,100777.44
2022-08-16T13:49:12.784Z,100775.34
2022-08-16T13:51:40.737Z,100770.28
2022-08-16T13:54:09.178Z,100771.22
2022-08-16T13:56:39.663Z,100770.94
2022-08-16T13:59:19.198Z,100781.31
2022-08-16T14:01:55.681Z,100782.56
2022-08-16T14:04:27.161Z,100780.72
2022-08-16T14:06:56.307Z,100782.25
2022-08-16T14:09:24.239Z,100783.81
2022-08-16T14:11:53.474Z,100780.28
2022-08-16T14:14:28.488Z,100777.06
2022-08-16T14:16:56.993Z,100776.97
2022-08-16T14:19:26.528Z,100782.38
2022-08-16T14:22:14.130Z,100782.50
2022-08-16T14:24:45.291Z,100777.50
2022-08-16T14:27:14.920Z,100779.56
2022-08-16T14:29:43.155Z,100782.72
2022-08-16T14:32:13.101Z,100782.00
2022-08-16T14:34:58.722Z,100785.41
2022-08-16T14:37:26.263Z,100780.59
2022-08-16T14:39:55.445Z,100778.44
2022-08-16T14:42:23.838Z,100785.97
2022-08-16T14:44:52.954Z,100788.09
2022-08-16T14:47:22.426Z,100793.06
2022-08-16T14:49:52.283Z,100785.72
2022-08-16T14:52:44.515Z,100792.19
2022-08-16T14:55:10.898Z,100783.53
2022-08-16T14:57:39.725Z,100781.22
2022-08-16T15:00:11.010Z,100783.63
2022-08-16T15:02:39.197Z,100790.75
2022-08-16T15:05:09.255Z,100801.06
2022-08-16T15:07:49.840Z,100804.97
2022-08-16T15:10:23.995Z,100798.41
2022-08-16T15:12:56.251Z,100796.50
2022-08-16T15:15:24.807Z,100794.91
2022-08-16T15:17:54.223Z,100794.94
2022-08-16T15:20:26.196Z,100797.69
2022-08-16T15:22:55.773Z,100805.56
2022-08-16T15:25:29.050Z,100808.25
2022-08-16T15:27:57.163Z,100818.47
2022-08-16T15:30:57.777Z,100817.00
2022-08-16T15:33:15.212Z,100808.03
2022-08-16T15:35:43.867Z,100815.50
2022-08-16T15:38:54.863Z,100821.38
2022-08-16T15:41:00.572Z,100819.88
2022-08-16T15:43:39.181Z,100822.56
2022-08-16T15:46:35.247Z,100821.56
2022-08-16T15:49:13.988Z,100826.84
2022-08-16T15:51:44.913Z,100821.16
2022-08-16T15:54:20.935Z,100822.34
2022-08-16T15:57:01.571Z,100821.16
2022-08-16T15:59:30.568Z,100821.38
2022-08-16T16:02:16.285Z,100818.69
2022-08-16T16:04:53.845Z,100815.50
2022-08-16T16:07:21.449Z,100822.63
2022-08-16T16:09:53.282Z,100822.25
2022-08-16T16:12:51.714Z,100818.00
2022-08-16T16:15:09.076Z,100815.69
2022-08-16T16:17:36.568Z,100819.78
2022-08-16T16:20:05.058Z,100826.59
2022-08-16T16:22:35.650Z,100821.97
2022-08-16T16:25:06.574Z,100818.47
2022-08-16T16:27:36.255Z,100815.97
2022-08-16T16:30:32.556Z,100820.00
2022-08-16T16:32:57.465Z,100823.00
2022-08-16T16:35:26.486Z,100817.00
2022-08-16T16:37:56.228Z,100828.19
2022-08-16T16:40:32.799Z,100826.16
2022-08-16T16:43:01.157Z,100829.16
2022-08-16T16:45:33.349Z,100823.16
2022-08-16T16:48:12.598Z,100840.53
2022-08-16T16:50:44.559Z,100842.94
2022-08-16T16:53:16.801Z,100847.41
2022-08-16T16:55:52.053Z,100844.63
2022-08-16T16:58:37.894Z,100851.50
2022-08-16T17:01:06.086Z,100849.38
2022-08-16T17:03:35.454Z,100844.59
2022-08-16T17:06:09.084Z,100855.31
2022-08-16T17:08:41.042Z,100847.31
2022-08-16T17:11:11.584Z,100845.88
2022-08-16T17:13:40.203Z,100853.59
2022-08-16T17:16:09.447Z,100847.50
2022-08-16T17:19:17.253Z,100842.75
2022-08-16T17:21:36.940Z,100839.75
2022-08-16T17:24:09.246Z,100839.91
2022-08-16T17:26:49.074Z,100834.81
2022-08-16T17:29:23.528Z,100846.81
2022-08-16T17:32:02.542Z,100831.59
2022-08-16T17:34:50.565Z,100831.94
2022-08-16T17:37:22.219Z,100840.94
2022-08-16T17:40:25.333Z,100835.03
2022-08-16T17:42:56.949Z,100842.19
2022-08-16T17:45:25.115Z,100841.69
2022-08-16T17:47:53.508Z,100851.94
2022-08-16T17:50:21.690Z,100844.50
2022-08-16T17:52:53.022Z,100838.72
2022-08-16T17:55:21.960Z,100815.66
2022-08-16T17:57:49.505Z,100847.84
2022-08-16T18:00:20.604Z,100848.19
2022-08-16T18:02:50.265Z,100846.13
2022-08-16T18:05:18.414Z,100843.22
2022-08-16T18:07:45.952Z,100837.88
2022-08-16T18:10:15.144Z,100843.81
2022-08-16T18:13:01.080Z,100835.03
2022-08-16T18:15:31.096Z,100841.19
2022-08-16T18:17:58.682Z,100850.34
2022-08-16T18:20:43.794Z,100852.03
2022-08-16T18:23:13.853Z,100859.28
2022-08-16T18:25:43.243Z,100870.84
2022-08-16T18:28:10.761Z,100868.84
2022-08-16T18:30:39.765Z,100862.16
2022-08-16T18:33:07.545Z,100860.31
2022-08-16T18:35:35.535Z,100862.75
2022-08-16T18:38:03.411Z,100865.22
2022-08-16T18:40:31.135Z,100864.16
2022-08-16T18:43:01.131Z,100867.91
2022-08-16T18:45:35.137Z,100857.22
2022-08-16T18:48:06.560Z,100857.78
2022-08-16T18:51:01.412Z,100859.66
2022-08-16T18:53:22.710Z,100856.22
2022-08-16T18:55:50.370Z,100853.00
2022-08-16T18:58:18.023Z,100866.09
2022-08-16T19:00:55.862Z,100865.31
2022-08-16T19:03:26.848Z,100864.28
2022-08-16T19:05:56.640Z,100879.22
2022-08-16T19:08:24.654Z,100885.91
2022-08-16T19:10:52.384Z,100884.31
2022-08-16T19:13:21.229Z,100883.28
2022-08-16T19:15:50.159Z,100890.50
2022-08-16T19:18:17.723Z,100895.28
2022-08-16T19:20:48.191Z,100893.16
2022-08-16T19:23:18.185Z,100902.25
2022-08-16T19:25:49.676Z,100910.19
2022-08-16T19:28:21.798Z,100905.94
2022-08-16T19:31:10.770Z,100900.06
2022-08-16T19:33:38.785Z,100902.75
2022-08-16T19:36:08.209Z,100905.94
2022-08-16T19:38:44.697Z,100896.59
2022-08-16T19:41:15.204Z,100902.72
2022-08-16T19:43:42.735Z,100903.25
2022-08-16T19:46:10.291Z,100916.56
2022-08-16T19:48:38.374Z,100924.28
2022-08-16T19:51:07.424Z,100927.22
2022-08-16T19:53:34.955Z,100928.53
2022-08-16T19:56:02.453Z,100924.78
2022-08-16T19:58:30.779Z,100933.56
2022-08-16T20:00:58.345Z,100938.09
2022-08-16T20:03:27.026Z,100939.41
2022-08-16T20:05:55.121Z,100948.41
2022-08-16T20:08:24.128Z,100944.41
2022-08-16T20:10:52.333Z,100947.06
2022-08-16T20:13:21.069Z,100943.31
2022-08-16T20:15:49.217Z,100936.66
2022-08-16T20:18:25.516Z,100941.44
2022-08-16T20:20:53.939Z,100941.69
2022-08-16T20:23:24.752Z,100943.53
2022-08-16T20:25:56.542Z,100950.13
2022-08-16T20:28:39.414Z,100953.59
2022-08-16T20:31:12.325Z,100957.88
2022-08-16T20:33:39.910Z,100954.09
2022-08-16T20:36:07.716Z,100944.75
2022-08-16T20:38:35.575Z,100948.22
2022-08-16T20:41:04.510Z,100946.56
2022-08-16T20:43:32.069Z,100959.34
2022-08-16T20:45:59.578Z,100961.69
2022-08-16T20:48:27.197Z,100957.16
2022-08-16T20:50:55.820Z,100955.56
2022-08-16T20:53:23.379Z,100961.09
2022-08-16T20:55:50.989Z,100955.75
2022-08-16T20:58:20.122Z,100954.19
2022-08-16T21:00:47.741Z,100955.97
2022-08-16T21:03:15.397Z,100962.59
2022-08-16T21:05:45.246Z,100962.03
2022-08-16T21:08:50.548Z,100959.91
2022-08-16T21:11:02.055Z,100962.28
2022-08-16T21:13:32.638Z,100969.16
2022-08-16T21:16:01.825Z,100962.22
2022-08-16T21:18:29.888Z,100969.66
2022-08-16T21:20:57.388Z,100976.03
2022-08-16T21:23:24.964Z,100980.53
2022-08-16T21:25:57.915Z,100980.78
2022-08-16T21:28:40.793Z,100981.28
2022-08-16T21:31:12.101Z,100981.81
2022-08-16T21:33:39.942Z,100983.09
2022-08-16T21:36:07.736Z,100980.13
2022-08-16T21:38:35.295Z,100976.34
2022-08-16T21:41:05.395Z,100972.00
2022-08-16T21:43:39.245Z,100978.38
2022-08-16T21:46:07.519Z,100984.72
2022-08-16T21:48:37.117Z,100995.28
2022-08-16T21:51:10.250Z,100996.09
2022-08-16T21:53:37.959Z,100996.59
2022-08-16T21:56:32.218Z,100989.94
2022-08-16T21:58:59.817Z,100986.38
2022-08-16T22:01:40.869Z,100986.88
2022-08-16T22:04:36.805Z,100980.47
2022-08-16T22:07:06.541Z,100988.13
2022-08-16T22:09:36.027Z,100987.00
2022-08-16T22:12:03.745Z,100984.59
2022-08-16T22:14:31.377Z,100982.97
2022-08-16T22:16:58.914Z,100992.28
2022-08-16T22:19:27.843Z,100988.00
2022-08-16T22:21:55.625Z,100984.78
2022-08-16T22:24:23.189Z,100990.44
2022-08-16T22:26:50.707Z,100991.19
2022-08-16T22:29:19.160Z,100984.56
2022-08-16T22:31:46.954Z,100986.88
2022-08-16T22:34:14.695Z,100986.09
2022-08-16T22:36:44.167Z,100984.00
2022-08-16T22:39:13.121Z,100996.72
2022-08-16T22:41:43.212Z,101001.72
2022-08-16T22:44:11.025Z,100998.00
2022-08-16T22:46:38.531Z,100997.44
2022-08-16T22:49:06.514Z,100992.91
2022-08-16T22:51:34.582Z,100987.03
2022-08-16T22:54:34.127Z,100990.72
2022-08-16T22:56:50.944Z,100977.06
2022-08-16T22:59:18.449Z,100981.34
2022-08-16T23:01:46.069Z,100975.72
2022-08-16T23:04:13.729Z,100972.25
2022-08-16T23:06:41.264Z,100967.44
2022-08-16T23:09:10.307Z,100969.75
2022-08-16T23:11:37.802Z,100966.81
2022-08-16T23:14:05.488Z,100926.53
2022-08-16T23:16:35.095Z,100980.09
2022-08-16T23:19:03.312Z,100982.75
2022-08-16T23:21:30.902Z,100962.00
2022-08-16T23:24:05.722Z,100964.88
2022-08-16T23:26:46.316Z,100948.88
2022-08-16T23:29:23.949Z,100948.34
2022-08-16T23:31:53.550Z,100960.00
2022-08-16T23:34:21.507Z,100950.56
2022-08-16T23:36:49.017Z,100947.91
2022-08-16T23:39:16.504Z,100954.78
2022-08-16T23:41:45.370Z,100945.22
2022-08-16T23:44:42.325Z,100938.84
2022-08-16T23:47:00.484Z,100942.00
2022-08-16T23:50:01.363Z,100947.78
2022-08-16T23:52:15.943Z,100947.22
2022-08-16T23:54:43.529Z,100950.13
2022-08-16T23:57:12.368Z,100948.25
2022-08-16T23:59:52.601Z,100945.31
